Time;durP1;ratioP1;P1;durP2;ratioP2;P2;SDS_P1;SDS_P2;PMS_P1;PMS_P2;Temp;Humidity;BMP_temperature;BMP_pressure;BME280_temperature;BME280_humidity;BME280_pressure;Samples;Min_cycle;Max_cycle;Signal;HPM_P1;HPM_P2
2021/09/04 00:01:50;;;;;;;12.70;8.38;;;;;;;13.27;89.21;99160.98;3845556;91;21040;-83
2021/09/04 00:07:51;;;;;;;17.00;7.95;;;;;;;13.10;89.44;99163.89;3815553;91;21098;-83
2021/09/04 00:13:53;;;;;;;12.85;7.47;;;;;;;13.04;89.81;99168.19;3848890;91;21024;-83
2021/09/04 00:19:54;;;;;;;12.88;6.80;;;;;;;13.00;89.47;99165.20;3855195;91;21573;-83
2021/09/04 00:25:56;;;;;;;12.20;8.23;;;;;;;12.86;89.10;99167.89;3848853;91;21163;-83
2021/09/04 00:31:57;;;;;;;14.70;7.47;;;;;;;12.63;89.29;99156.59;3851026;91;21130;-83
2021/09/04 00:37:58;;;;;;;18.23;7.20;;;;;;;12.36;89.54;99157.19;3841649;91;21075;-83
2021/09/04 00:44:00;;;;;;;15.30;6.92;;;;;;;12.52;90.61;99165.93;3850785;91;21063;-84
2021/09/04 00:50:03;;;;;;;11.55;7.28;;;;;;;12.62;90.61;99159.11;3850137;91;21178;-84
2021/09/04 00:56:04;;;;;;;12.55;7.97;;;;;;;12.64;90.74;99160.91;3800753;92;21086;-83
2021/09/04 01:02:07;;;;;;;13.78;7.50;;;;;;;12.75;91.00;99162.93;3847661;91;21095;-83
2021/09/04 01:08:10;;;;;;;14.03;6.70;;;;;;;12.67;90.74;99153.08;3851678;91;21075;-84
2021/09/04 01:14:12;;;;;;;19.40;7.58;;;;;;;12.70;90.91;99146.81;3845483;91;21082;-84
2021/09/04 01:20:13;;;;;;;11.35;7.08;;;;;;;12.72;91.00;99154.86;3851138;91;22474;-83
2021/09/04 01:26:15;;;;;;;13.20;7.35;;;;;;;12.72;90.69;99154.09;3850087;91;21144;-84
2021/09/04 01:32:16;;;;;;;13.60;7.05;;;;;;;12.70;90.89;99154.44;3852712;91;21103;-84
2021/09/04 01:38:17;;;;;;;15.10;7.42;;;;;;;12.68;90.63;99150.52;3845498;90;21105;-84
2021/09/04 01:44:19;;;;;;;12.70;7.33;;;;;;;12.52;91.18;99161.23;3838126;91;21146;-84
2021/09/04 01:50:20;;;;;;;14.00;8.68;;;;;;;12.58;91.26;99156.95;3855733;90;21624;-83
2021/09/04 01:56:21;;;;;;;18.55;7.90;;;;;;;12.50;91.54;99151.21;3842612;91;21083;-84
2021/09/04 02:02:22;;;;;;;11.88;7.35;;;;;;;12.52;91.62;99152.20;3852017;91;21068;-84
2021/09/04 02:08:24;;;;;;;12.55;7.85;;;;;;;12.57;91.71;99143.61;3811997;92;21144;-85
2021/09/04 02:14:25;;;;;;;12.18;8.28;;;;;;;12.63;91.73;99144.23;3791293;92;21646;-84
2021/09/04 02:20:26;;;;;;;17.00;9.08;;;;;;;12.68;91.71;99133.46;3846758;91;21144;-84
2021/09/04 02:26:29;;;;;;;14.93;8.83;;;;;;;12.68;91.86;99129.34;3850154;91;21067;-84
2021/09/04 02:32:31;;;;;;;15.30;8.18;;;;;;;12.65;91.66;99131.48;3845126;91;21651;-84
2021/09/04 02:38:33;;;;;;;11.75;8.23;;;;;;;12.67;91.83;99135.98;3857758;91;21154;-83
2021/09/04 02:44:34;;;;;;;15.75;8.35;;;;;;;12.50;90.65;99150.41;3838682;91;21054;-83
2021/09/04 02:50:37;;;;;;;12.98;8.35;;;;;;;11.98;91.18;99156.34;3840814;91;21093;-84
2021/09/04 02:56:39;;;;;;;13.98;8.35;;;;;;;11.55;91.41;99148.29;3831901;92;21148;-83
2021/09/04 03:02:40;;;;;;;12.05;8.35;;;;;;;11.31;92.79;99146.08;3828331;90;21165;-83
2021/09/04 03:08:42;;;;;;;15.63;10.05;;;;;;;11.24;93.37;99156.98;3830674;92;21052;-83
2021/09/04 03:14:45;;;;;;;15.78;10.72;;;;;;;11.26;93.06;99147.78;3791883;93;21134;-84
2021/09/04 03:20:47;;;;;;;17.82;10.18;;;;;;;11.12;93.50;99143.52;3784985;93;21164;-83
2021/09/04 03:26:48;;;;;;;16.17;9.40;;;;;;;11.30;93.50;99140.98;3787041;93;21102;-83
2021/09/04 03:32:50;;;;;;;14.00;9.10;;;;;;;11.39;93.89;99137.34;3787838;93;21175;-84
2021/09/04 03:38:52;;;;;;;13.40;8.85;;;;;;;11.49;93.59;99136.67;3831803;92;21384;-83
2021/09/04 03:44:53;;;;;;;13.43;8.90;;;;;;;11.60;93.53;99132.87;3832773;92;21104;-84
2021/09/04 03:50:54;;;;;;;12.15;7.90;;;;;;;11.60;93.32;99152.06;3838812;91;21095;-83
2021/09/04 03:56:56;;;;;;;17.70;8.83;;;;;;;11.66;93.79;99155.27;3850254;91;21029;-83
2021/09/04 04:02:57;;;;;;;14.93;8.55;;;;;;;11.59;93.36;99162.05;3846226;91;21160;-83
2021/09/04 04:08:59;;;;;;;14.87;8.13;;;;;;;11.65;93.82;99166.81;3838287;87;31741;-83
2021/09/04 04:15:00;;;;;;;15.75;8.15;;;;;;;11.78;94.03;99161.27;3846328;92;21400;-84
2021/09/04 04:21:03;;;;;;;12.58;7.70;;;;;;;11.72;93.52;99159.23;3863646;90;21072;-83
2021/09/04 04:27:05;;;;;;;14.35;8.35;;;;;;;11.72;93.75;99159.23;3863703;90;21127;-83
2021/09/04 04:33:07;;;;;;;14.73;8.13;;;;;;;11.74;93.90;99156.91;3870122;91;21050;-83
2021/09/04 04:39:08;;;;;;;15.55;8.50;;;;;;;11.73;93.78;99167.09;3864693;90;21622;-84
2021/09/04 04:45:10;;;;;;;18.67;8.68;;;;;;;11.71;93.54;99167.27;3860486;91;21062;-83
2021/09/04 04:51:12;;;;;;;14.40;8.80;;;;;;;11.75;93.89;99170.82;3862565;90;21563;-83
2021/09/04 04:57:13;;;;;;;13.68;7.65;;;;;;;11.82;93.94;99173.64;3853337;91;21169;-83
2021/09/04 05:03:15;;;;;;;20.80;10.00;;;;;;;11.82;93.77;99174.44;3856264;91;21210;-83
2021/09/04 05:09:16;;;;;;;16.23;9.15;;;;;;;11.90;93.70;99171.17;3852773;90;21131;-83
2021/09/04 05:15:17;;;;;;;83.60;14.93;;;;;;;11.95;93.74;99170.22;3853452;91;21069;-83
2021/09/04 05:21:20;;;;;;;22.95;10.60;;;;;;;11.98;93.83;99172.80;3778108;92;21146;-83
2021/09/04 05:27:23;;;;;;;14.65;7.97;;;;;;;12.01;93.69;99174.79;3807992;92;21382;-83
2021/09/04 05:33:24;;;;;;;12.88;7.90;;;;;;;12.10;93.85;99176.62;3810601;92;21058;-84
2021/09/04 05:39:26;;;;;;;14.90;8.90;;;;;;;12.21;93.88;99173.38;3854967;90;21129;-82
2021/09/04 05:45:27;;;;;;;23.75;10.03;;;;;;;12.34;93.96;99170.53;3813950;92;21230;-83
2021/09/04 05:51:28;;;;;;;18.17;8.35;;;;;;;12.43;94.06;99170.98;3851868;91;21726;-83
2021/09/04 05:57:30;;;;;;;11.88;7.00;;;;;;;12.57;94.15;99175.19;3851664;91;21592;-83
2021/09/04 06:03:31;;;;;;;10.55;7.55;;;;;;;12.79;94.20;99178.83;3852147;90;21098;-84
2021/09/04 06:09:32;;;;;;;17.55;10.40;;;;;;;12.96;94.35;99180.30;3853422;90;22325;-84
2021/09/04 06:15:33;;;;;;;17.82;11.30;;;;;;;13.14;94.50;99185.91;3851023;90;21108;-83
2021/09/04 06:21:34;;;;;;;28.00;14.68;;;;;;;13.33;94.82;99177.30;3853424;90;21160;-84
2021/09/04 06:27:36;;;;;;;30.45;14.70;;;;;;;13.65;95.22;99185.84;3856078;91;21110;-83
2021/09/04 06:33:37;;;;;;;30.17;14.03;;;;;;;13.95;94.88;99190.99;3853071;91;21101;-84
2021/09/04 06:39:38;;;;;;;21.60;13.05;;;;;;;14.23;94.70;99184.87;3854984;91;21678;-84
2021/09/04 06:45:40;;;;;;;20.80;12.43;;;;;;;14.49;94.30;99182.33;3849163;91;21145;-83
2021/09/04 06:51:41;;;;;;;21.50;12.05;;;;;;;14.67;94.29;99192.75;3851266;90;21043;-84
2021/09/04 06:57:42;;;;;;;19.17;11.38;;;;;;;14.83;93.90;99198.59;3818710;91;21243;-84
2021/09/04 07:03:44;;;;;;;17.23;11.60;;;;;;;14.95;93.87;99210.58;3813800;92;21179;-84
2021/09/04 07:09:45;;;;;;;15.50;9.80;;;;;;;15.16;93.86;99204.98;3816021;92;21118;-84
2021/09/04 07:15:46;;;;;;;19.32;10.45;;;;;;;15.29;93.58;99206.12;3814244;91;21128;-83
2021/09/04 07:21:48;;;;;;;19.30;10.28;;;;;;;15.65;93.46;99199.84;3825580;92;21125;-84
2021/09/04 07:27:49;;;;;;;15.43;11.43;;;;;;;15.91;92.68;99199.27;3825538;92;21157;-84
2021/09/04 07:33:50;;;;;;;17.70;10.88;;;;;;;16.15;92.34;99209.94;3769652;93;21507;-84
2021/09/04 07:39:53;;;;;;;18.57;10.60;;;;;;;16.43;92.20;99213.84;3816263;91;21120;-84
2021/09/04 07:45:56;;;;;;;15.03;10.63;;;;;;;16.63;92.23;99207.98;3814588;91;21107;-84
2021/09/04 07:52:03;;;;;;;18.77;10.72;;;;;;;16.89;91.74;99219.75;3817878;91;22308;-84
2021/09/04 07:58:02;;;;;;;17.87;11.53;;;;;;;17.21;91.58;99222.34;3827653;91;21727;-84
2021/09/04 08:04:04;;;;;;;17.85;11.00;;;;;;;17.53;90.95;99223.95;3833654;91;21169;-84
2021/09/04 08:10:06;;;;;;;18.82;11.53;;;;;;;17.91;90.19;99230.35;3829219;92;21098;-84
2021/09/04 08:16:08;;;;;;;22.15;12.60;;;;;;;18.15;89.39;99225.64;3881175;89;30491;-84
2021/09/04 08:22:09;;;;;;;23.35;12.90;;;;;;;18.55;89.19;99225.39;3882259;90;21107;-84
2021/09/04 08:28:11;;;;;;;21.95;11.95;;;;;;;18.79;88.35;99228.14;3894028;90;21087;-84
2021/09/04 08:34:13;;;;;;;17.37;10.70;;;;;;;19.03;87.60;99232.45;3893157;90;21101;-85
2021/09/04 08:40:15;;;;;;;17.92;10.28;;;;;;;19.19;87.03;99238.86;3892187;90;21078;-85
2021/09/04 08:46:16;;;;;;;16.82;11.05;;;;;;;19.51;86.75;99231.31;3892081;90;21629;-85
2021/09/04 08:52:19;;;;;;;19.87;12.10;;;;;;;19.59;85.85;99225.16;3868752;89;21071;-85
2021/09/04 08:58:21;;;;;;;14.47;9.83;;;;;;;19.64;85.41;99234.97;3949691;89;21774;-84
2021/09/04 09:04:23;;;;;;;14.70;10.55;;;;;;;19.86;84.83;99233.30;3927923;88;21701;-84
2021/09/04 09:10:30;;;;;;;18.52;11.28;;;;;;;20.14;84.40;99230.69;3939123;88;21594;-85
2021/09/04 09:16:32;;;;;;;17.67;11.33;;;;;;;20.12;83.40;99238.63;3908566;89;21745;-83
2021/09/04 09:22:44;;;;;;;18.65;12.30;;;;;;;20.10;83.05;99234.73;3949392;89;21093;-84
2021/09/04 09:28:45;;;;;;;23.60;13.30;;;;;;;20.61;81.95;99226.94;3923941;89;21113;-85
2021/09/04 09:34:49;;;;;;;14.35;10.35;;;;;;;20.90;80.74;99233.34;3951815;89;21113;-85
2021/09/04 09:40:50;;;;;;;17.55;10.98;;;;;;;20.91;80.43;99227.94;3934964;88;21101;-84
2021/09/04 09:47:02;;;;;;;17.02;11.50;;;;;;;20.78;80.23;99231.89;3905935;88;21558;-84
2021/09/04 09:53:05;;;;;;;17.17;11.18;;;;;;;20.51;79.65;99227.22;3926629;88;21256;-85
2021/09/04 09:59:10;;;;;;;16.90;11.93;;;;;;;21.46;79.38;99230.41;3915070;89;21109;-85
2021/09/04 10:05:14;;;;;;;16.67;10.75;;;;;;;21.55;78.76;99222.77;3912089;88;21076;-85
2021/09/04 10:11:16;;;;;;;15.40;10.55;;;;;;;21.74;77.58;99226.78;3950352;89;21201;-84
2021/09/04 10:17:20;;;;;;;15.20;10.65;;;;;;;21.51;76.79;99229.86;3921596;89;21614;-85
2021/09/04 10:23:33;;;;;;;19.62;13.08;;;;;;;21.18;76.40;99229.81;3920132;89;21105;-85
2021/09/04 10:29:44;;;;;;;23.52;15.32;;;;;;;21.09;76.03;99219.94;3931462;88;21137;-85
2021/09/04 10:35:58;;;;;;;27.10;17.32;;;;;;;21.34;76.01;99224.80;3946694;88;21115;-84
2021/09/04 10:42:00;;;;;;;22.93;16.55;;;;;;;21.30;75.87;99233.24;3934388;89;21139;-84
2021/09/04 10:48:15;;;;;;;22.00;16.20;;;;;;;20.70;75.42;99240.24;3943225;88;21130;-84
2021/09/04 10:54:56;;;;;;;21.77;16.15;;;;;;;19.99;75.61;99230.83;3929899;89;21534;-85
2021/09/04 11:00:57;;;;;;;25.90;15.90;;;;;;;19.47;75.80;99234.16;3858265;91;21105;-85
2021/09/04 11:06:58;;;;;;;22.45;15.35;;;;;;;19.72;75.80;99237.78;3915155;89;21101;-84
2021/09/04 11:13:18;;;;;;;21.12;15.00;;;;;;;19.58;76.00;99238.08;3902635;89;21117;-84
2021/09/04 11:19:40;;;;;;;23.55;15.45;;;;;;;19.84;76.37;99235.12;3914285;89;21094;-84
2021/09/04 11:26:00;;;;;;;22.62;16.23;;;;;;;20.48;76.09;99225.31;3924939;89;21075;-84
2021/09/04 11:32:01;;;;;;;19.50;14.45;;;;;;;21.16;75.76;99225.30;3903695;90;21239;-84
2021/09/04 11:38:02;;;;;;;18.90;15.10;;;;;;;21.76;74.88;99225.57;3896415;89;21799;-85
2021/09/04 11:44:04;;;;;;;20.48;14.00;;;;;;;22.03;74.10;99221.75;3910906;89;21034;-83
2021/09/04 11:50:10;;;;;;;22.17;15.15;;;;;;;22.02;73.47;99222.98;3893669;89;21194;-85
2021/09/04 11:56:15;;;;;;;;;;;;;;;21.81;73.11;99223.63;3918961;89;21098;-84
2021/09/04 12:02:17;;;;;;;20.57;16.10;;;;;;;21.51;71.00;99221.51;3936492;90;20118;-84
2021/09/04 12:08:26;;;;;;;20.90;15.15;;;;;;;21.43;70.74;99229.89;3944627;89;22140;-85
2021/09/04 12:14:30;;;;;;;20.48;14.20;;;;;;;21.35;71.23;99225.75;3919815;89;21171;-85
2021/09/04 12:20:36;;;;;;;23.55;14.93;;;;;;;21.35;71.03;99224.95;3899880;89;31250;-84
2021/09/04 12:26:52;;;;;;;20.08;14.35;;;;;;;21.20;70.27;99228.78;3878600;90;21129;-85
2021/09/04 12:33:07;;;;;;;25.12;15.35;;;;;;;20.97;70.34;99217.10;3876586;90;21631;-85
2021/09/04 12:39:24;;;;;;;20.08;14.50;;;;;;;20.84;69.04;99227.36;3788653;92;21188;-85
2021/09/04 12:45:25;;;;;;;19.25;14.10;;;;;;;20.72;70.42;99221.13;3813128;92;21964;-85
2021/09/04 12:51:36;;;;;;;23.77;15.55;;;;;;;20.72;70.35;99223.28;3766550;91;21098;-85
2021/09/04 12:57:37;;;;;;;20.77;14.75;;;;;;;20.83;70.02;99219.61;3805965;91;21091;-85
2021/09/04 13:03:38;;;;;;;18.32;14.05;;;;;;;20.77;69.64;99232.48;3768833;92;21132;-85
2021/09/04 13:09:39;;;;;;;19.98;15.78;;;;;;;20.78;69.01;99232.66;3882972;89;21089;-84
2021/09/04 13:15:41;;;;;;;22.50;15.30;;;;;;;20.74;69.47;99227.80;3814059;91;21126;-84
2021/09/04 13:21:44;;;;;;;19.12;14.15;;;;;;;20.75;69.73;99226.57;3774594;91;21071;-85
2021/09/04 13:27:45;;;;;;;18.77;13.25;;;;;;;20.50;69.63;99225.03;3871833;90;21691;-84
2021/09/04 13:33:47;;;;;;;19.17;14.25;;;;;;;20.45;70.05;99222.80;3875306;89;21141;-85
2021/09/04 13:39:49;;;;;;;21.70;14.65;;;;;;;20.46;69.64;99218.00;3808225;91;21126;-84
2021/09/04 13:45:50;;;;;;;23.52;14.65;;;;;;;20.45;69.46;99220.62;3770752;91;21143;-84
2021/09/04 13:51:52;;;;;;;22.22;14.73;;;;;;;20.50;69.17;99211.13;3811320;91;21587;-85
2021/09/04 13:57:53;;;;;;;20.70;13.90;;;;;;;20.48;67.24;99205.84;3870804;90;21101;-84
2021/09/04 14:03:55;;;;;;;19.55;14.85;;;;;;;20.33;68.14;99204.02;3795362;92;21074;-84
2021/09/04 14:09:56;;;;;;;17.30;13.45;;;;;;;20.27;68.35;99192.47;3864129;91;22539;-85
2021/09/04 14:15:57;;;;;;;20.88;13.45;;;;;;;20.23;68.66;99200.91;3874885;91;21146;-84
2021/09/04 14:21:58;;;;;;;23.27;13.83;;;;;;;20.19;68.46;99198.81;3863454;91;21041;-84
2021/09/04 14:28:00;;;;;;;19.85;13.62;;;;;;;20.17;68.26;99204.05;3868012;91;21089;-84
2021/09/04 14:34:01;;;;;;;18.48;12.35;;;;;;;20.20;68.07;99201.16;3873215;91;22488;-84
2021/09/04 14:40:03;;;;;;;17.25;12.82;;;;;;;20.23;68.07;99203.06;3874300;91;21089;-83
2021/09/04 14:46:04;;;;;;;22.55;13.32;;;;;;;20.20;67.78;99201.16;3856698;91;21109;-84
2021/09/04 14:52:06;;;;;;;19.32;13.25;;;;;;;20.06;68.43;99199.31;3783761;92;21645;-84
2021/09/04 14:58:07;;;;;;;21.37;14.07;;;;;;;19.98;68.46;99202.08;3873476;90;21097;-84
2021/09/04 15:04:08;;;;;;;20.85;13.93;;;;;;;19.89;68.54;99197.70;3833567;92;21756;-85
2021/09/04 15:10:10;;;;;;;20.88;13.68;;;;;;;19.77;68.59;99200.57;3817684;90;21175;-84
2021/09/04 15:16:11;;;;;;;22.40;12.25;;;;;;;19.71;68.71;99196.75;3757986;93;21165;-84
2021/09/04 15:22:12;;;;;;;18.37;12.47;;;;;;;19.63;69.02;99193.95;3817137;91;21116;-85
2021/09/04 15:28:13;;;;;;;21.30;13.35;;;;;;;19.49;68.87;99198.42;3851744;90;21142;-84
2021/09/04 15:34:15;;;;;;;21.10;12.50;;;;;;;19.30;69.00;99209.53;3837454;91;21078;-84
2021/09/04 15:40:16;;;;;;;19.42;12.07;;;;;;;19.14;69.29;99209.45;3763567;93;21119;-84
2021/09/04 15:46:18;;;;;;;22.30;12.65;;;;;;;19.04;69.53;99209.05;3828071;92;21079;-84
2021/09/04 15:52:19;;;;;;;22.27;12.85;;;;;;;18.98;69.65;99212.13;3838529;92;21114;-84
2021/09/04 15:58:22;;;;;;;19.25;12.95;;;;;;;18.89;69.84;99209.91;3771911;93;21156;-84
2021/09/04 16:04:23;;;;;;;20.77;12.82;;;;;;;18.84;70.07;99213.17;3838900;90;21696;-84
2021/09/04 16:10:24;;;;;;;16.90;12.25;;;;;;;18.77;70.21;99209.16;3785242;93;21156;-84
2021/09/04 16:16:27;;;;;;;19.37;12.20;;;;;;;18.66;70.41;99207.97;3838990;90;21188;-84
2021/09/04 16:22:28;;;;;;;20.20;12.28;;;;;;;18.57;70.80;99203.55;3786122;92;21093;-83
2021/09/04 16:28:29;;;;;;;19.67;12.28;;;;;;;18.45;70.97;99199.22;3843130;91;21122;-83
2021/09/04 16:34:33;;;;;;;29.23;12.82;;;;;;;18.35;71.09;99205.09;3896238;89;21118;-84
2021/09/04 16:40:33;;;;;;;17.10;11.88;;;;;;;18.22;71.36;99198.60;3846557;91;21164;-84
2021/09/04 16:46:35;;;;;;;18.32;12.03;;;;;;;18.09;71.79;99198.20;3873732;90;21108;-84
2021/09/04 16:52:36;;;;;;;16.77;11.25;;;;;;;17.96;71.78;99201.40;3903636;90;21970;-84
2021/09/04 16:58:37;;;;;;;19.35;12.55;;;;;;;17.89;71.88;99213.95;3870352;89;21558;-84
2021/09/04 17:04:38;;;;;;;17.00;11.95;;;;;;;17.73;72.05;99218.73;3869714;90;21043;-84
2021/09/04 17:10:39;;;;;;;19.92;12.20;;;;;;;17.58;72.25;99223.50;3806002;92;21662;-84
2021/09/04 17:16:41;;;;;;;19.07;12.13;;;;;;;17.41;72.61;99221.72;3748502;92;21050;-84
2021/09/04 17:22:42;;;;;;;21.90;14.00;;;;;;;17.19;72.70;99243.33;3828461;92;21100;-84
2021/09/04 17:28:45;;;;;;;21.80;13.20;;;;;;;17.07;73.28;99246.61;3802018;92;21080;-84
2021/09/04 17:34:46;;;;;;;22.65;14.25;;;;;;;16.96;73.67;99252.88;3823684;92;21103;-83
2021/09/04 17:40:47;;;;;;;22.95;14.73;;;;;;;16.88;73.95;99256.91;3778345;93;21035;-84
2021/09/04 17:46:48;;;;;;;23.60;15.10;;;;;;;16.73;74.16;99259.59;3751746;93;21653;-84
2021/09/04 17:52:50;;;;;;;19.48;13.15;;;;;;;16.61;74.64;99274.73;3830244;92;21077;-84
2021/09/04 17:58:51;;;;;;;22.05;15.00;;;;;;;16.48;74.85;99277.79;3809713;92;21106;-84
2021/09/04 18:04:54;;;;;;;23.50;15.25;;;;;;;16.32;75.08;99293.30;3833235;92;21021;-84
2021/09/04 18:10:56;;;;;;;22.73;14.38;;;;;;;16.17;75.49;99300.88;3749145;92;9999728;-84
2021/09/04 18:16:57;;;;;;;24.75;14.65;;;;;;;16.11;75.91;99309.41;3829675;90;21107;-84
2021/09/04 18:22:58;;;;;;;24.05;15.18;;;;;;;16.03;76.10;99330.55;3822856;92;21070;-84
2021/09/04 18:29:03;;;;;;;22.35;14.70;;;;;;;15.94;76.42;99330.21;3857410;92;21116;-84
2021/09/04 18:35:07;;;;;;;19.32;13.32;;;;;;;15.92;76.47;99338.10;3829328;92;21796;-84
2021/09/04 18:41:15;;;;;;;20.15;13.18;;;;;;;15.89;76.55;99351.33;3822776;92;21057;-84
2021/09/04 18:47:19;;;;;;;22.65;13.70;;;;;;;15.81;76.49;99354.72;3768570;93;21059;-84
2021/09/04 19:00:49;;;;;;;20.50;11.87;;;;;;;15.58;76.73;99367.61;3804844;90;21076;-84
2021/09/04 19:13:56;;;;;;;22.65;11.60;;;;;;;15.36;76.97;99381.22;3767584;90;10000286;-84
2021/09/04 19:19:58;;;;;;;21.97;12.37;;;;;;;15.31;77.15;99386.38;3883233;90;21046;-84
2021/09/04 19:26:00;;;;;;;22.30;12.68;;;;;;;15.18;77.31;99392.09;3859525;90;21011;-84
2021/09/04 19:32:01;;;;;;;17.27;10.28;;;;;;;14.99;77.47;99404.31;3882766;90;21546;-83
2021/09/04 19:38:05;;;;;;;18.85;10.82;;;;;;;14.83;77.66;99414.94;3887029;90;21053;-83
2021/09/04 19:44:06;;;;;;;16.10;10.05;;;;;;;14.72;78.07;99421.03;3874149;90;21102;-84
2021/09/04 19:50:09;;;;;;;17.32;10.85;;;;;;;14.55;78.48;99420.41;3897790;90;21068;-84
2021/09/04 19:56:11;;;;;;;20.32;10.55;;;;;;;14.42;78.55;99422.56;3875708;89;21077;-84
2021/09/04 20:02:15;;;;;;;18.42;10.58;;;;;;;14.28;78.70;99432.16;3876202;90;21102;-83
2021/09/04 20:08:53;;;;;;;18.37;10.98;;;;;;;14.18;79.07;99435.05;3860873;90;21433;-83
2021/09/04 20:15:26;;;;;;;16.75;10.58;;;;;;;14.04;79.20;99448.75;3812765;90;10000050;-84
2021/09/04 20:22:06;;;;;;;16.85;10.38;;;;;;;13.88;79.28;99451.83;3783160;92;21031;-83
2021/09/04 20:28:07;;;;;;;19.73;9.63;;;;;;;13.77;79.68;99451.56;3750872;93;21107;-83
2021/09/04 20:34:10;;;;;;;12.98;8.53;;;;;;;13.63;79.95;99455.60;3890593;90;21126;-84
2021/09/04 20:40:13;;;;;;;15.60;8.98;;;;;;;13.49;79.91;99464.56;3879395;90;21975;-84
2021/09/04 20:46:15;;;;;;;13.75;8.73;;;;;;;13.39;80.20;99476.27;3867103;90;22151;-83
2021/09/04 20:52:16;;;;;;;15.90;8.55;;;;;;;13.30;80.51;99483.26;3873132;90;21156;-83
2021/09/04 20:58:17;;;;;;;16.07;8.05;;;;;;;13.20;80.50;99488.11;3898263;90;21163;-83
2021/09/04 21:11:25;;;;;;;11.05;6.33;;;;;;;12.98;80.45;99497.30;3892157;90;21077;-83
2021/09/04 21:17:29;;;;;;;11.18;6.15;;;;;;;12.88;80.81;99501.52;3901822;89;21121;-83
2021/09/04 21:23:31;;;;;;;14.40;6.47;;;;;;;12.91;81.17;99507.63;3885573;89;21569;-84
2021/09/04 21:29:34;;;;;;;9.70;5.92;;;;;;;12.89;80.72;99518.20;3882923;90;21099;-82
2021/09/04 21:35:35;;;;;;;11.63;5.95;;;;;;;12.81;80.71;99515.17;3880083;90;21830;-83
2021/09/04 21:41:36;;;;;;;11.48;6.17;;;;;;;12.78;81.10;99515.16;3889690;90;21649;-84
2021/09/04 21:47:38;;;;;;;9.85;5.97;;;;;;;12.74;81.14;99520.61;3893528;89;21082;-82
2021/09/04 21:53:39;;;;;;;10.08;5.87;;;;;;;12.61;81.03;99532.44;3892471;90;21398;-82
2021/09/04 21:59:44;;;;;;;10.00;6.35;;;;;;;12.56;81.27;99530.59;3854592;90;21075;-83
2021/09/04 22:05:45;;;;;;;11.45;6.12;;;;;;;12.52;81.27;99530.57;3710603;94;21200;-83
2021/09/04 22:11:46;;;;;;;11.45;5.75;;;;;;;12.49;81.54;99539.56;3710532;95;21631;-82
2021/09/04 22:17:47;;;;;;;11.60;5.42;;;;;;;12.41;81.23;99547.50;3808398;92;21092;-82
2021/09/04 22:23:49;;;;;;;11.53;5.75;;;;;;;12.35;81.60;99550.94;3710192;94;21158;-83
2021/09/04 22:29:50;;;;;;;11.83;4.92;;;;;;;12.33;81.62;99546.39;3692235;95;21063;-84
2021/09/04 22:35:52;;;;;;;9.93;6.00;;;;;;;12.33;81.76;99544.45;3810558;92;21080;-83
2021/09/04 22:41:53;;;;;;;11.08;5.47;;;;;;;12.30;81.65;99553.44;3709553;94;21096;-83
2021/09/04 22:47:56;;;;;;;12.53;5.22;;;;;;;12.13;81.60;99550.45;3692971;95;21098;-83
2021/09/04 22:53:57;;;;;;;9.58;5.05;;;;;;;12.03;81.98;99546.39;3822354;92;21079;-83
2021/09/04 23:06:54;;;;;;;9.30;5.42;;;;;;;11.98;82.39;99546.71;3846896;91;21136;-83
2021/09/04 23:12:58;;;;;;;9.73;5.55;;;;;;;11.93;82.41;99545.65;3847265;91;21063;-83
2021/09/04 23:19:01;;;;;;;9.23;5.55;;;;;;;11.76;82.44;99549.53;3913796;90;22052;-83
2021/09/04 23:25:03;;;;;;;11.30;5.60;;;;;;;11.71;82.64;99559.44;3904076;89;21100;-83
2021/09/04 23:31:04;;;;;;;10.90;5.65;;;;;;;11.63;82.77;99559.91;3912990;90;21579;-83
2021/09/04 23:37:07;;;;;;;10.93;5.70;;;;;;;11.43;82.70;99562.50;3849038;91;21060;-83
2021/09/04 23:43:08;;;;;;;12.65;5.78;;;;;;;11.31;82.70;99557.78;3849569;90;21593;-83
2021/09/04 23:49:09;;;;;;;11.65;6.08;;;;;;;11.20;83.17;99554.06;3816485;91;21073;-83
2021/09/04 23:55:11;;;;;;;12.13;6.62;;;;;;;11.16;83.43;99561.42;3849906;91;21096;-83
